If you wish to contribute or participate in the discussions about articles you are invited to join SKYbrary as a registered user

 Actions

Bamako-Sénou International Airport

From SKYbrary Wiki

GABS
Airport
ICAO: GABS – IATA: BKO
Summary
Name Bamako-Sénou International Airport
Region Africa
Territory Mali ML.gif
Location Bamako, Bamako
Serving Bamako
Elevation 380.086 m <br />1,247 ft380.086 m <br />
Coordinates 12° 32' 27.33" N, 7° 56' 52.62" W
Runways
Designator Length Width Surface ROPS
6/24 2706 m8,877.953 ft <br /> 45 m147.638 ft <br /> ASP yes/yes


METAR
Observation GABS 110300Z 25004KT 9999 TS FEW030 FEW033CB 25/20 Q1012 NOSIG
Station Bamako / Senou
Date/Time 11 May 2021 03:00:00
Wind direction 250°
Wind speed 04 kts
Lowest cloud amount few clouds
Temperature 25°C
Dew point 20°C
Humidity 73%
QNH 1012 hPa
Weather condition thunderstorm

Bamako's Modibo Keita International Airport (formerly Bamako–Sénou International Airport) is Mali's main airport located approximately 15 km8.099 nm <br />15,000 m <br />49,212.598 ft <br /> south of downtown Bamako, the capital of Mali in West Africa.

Climatology

Tropical savannah climate (Köppen climate classification Aw)

Maps

Terrain

Loading map...

Airport Layout

Loading map...


Accidents & Serious Incidents at or in vicinity of GABS

None on SKYbrary